Time;durP1;ratioP1;P1;durP2;ratioP2;P2;SDS_P1;SDS_P2;PMS_P1;PMS_P2;Temp;Humidity;BMP_temperature;BMP_pressure;BME280_temperature;BME280_humidity;BME280_pressure;Samples;Min_cycle;Max_cycle;Signal;HPM_P1;HPM_P2
2020/12/08 00:02:16;;;;;;;35.33;20.95;;;;;;;0.00;100.00;101257.09;5058781;28;20032;-66
2020/12/08 00:05:04;;;;;;;31.90;20.23;;;;;;;-0.03;100.00;101260.41;5061092;28;20098;-67
2020/12/08 00:07:50;;;;;;;34.58;20.33;;;;;;;0.27;100.00;101255.41;5052739;28;20098;-67
2020/12/08 00:10:35;;;;;;;32.72;20.55;;;;;;;0.13;100.00;101254.94;5052212;28;20191;-67
2020/12/08 00:13:21;;;;;;;35.70;20.95;;;;;;;0.29;100.00;101252.88;5052588;28;20093;-67
2020/12/08 00:16:06;;;;;;;33.90;20.35;;;;;;;0.33;100.00;101257.28;5052646;28;20032;-67
2020/12/08 00:18:52;;;;;;;36.15;22.48;;;;;;;0.32;100.00;101247.81;5052177;28;20028;-66
2020/12/08 00:21:39;;;;;;;35.38;21.17;;;;;;;0.26;100.00;101255.34;5052480;28;20021;-66
2020/12/08 00:24:25;;;;;;;35.45;21.17;;;;;;;0.08;100.00;101261.66;5051967;28;20097;-66
2020/12/08 00:27:11;;;;;;;40.58;23.60;;;;;;;-0.11;100.00;101266.16;5038440;28;20039;-66
2020/12/08 00:29:56;;;;;;;39.40;21.98;;;;;;;-0.12;100.00;101274.72;5051784;28;20036;-65
2020/12/08 00:32:44;;;;;;;37.65;21.00;;;;;;;0.07;100.00;101253.88;5052624;28;20047;-66
2020/12/08 00:35:29;;;;;;;38.72;21.70;;;;;;;-0.14;100.00;101258.31;5051926;28;20040;-66
2020/12/08 00:38:15;;;;;;;35.20;20.77;;;;;;;-0.30;100.00;101254.34;5038656;28;20058;-67
2020/12/08 00:41:00;;;;;;;37.90;23.17;;;;;;;0.01;100.00;101259.69;5052265;28;20025;-66
2020/12/08 00:43:48;;;;;;;43.97;22.42;;;;;;;-0.27;100.00;101251.00;5051786;28;20432;-66
2020/12/08 00:46:34;;;;;;;40.10;22.60;;;;;;;-0.23;100.00;101253.72;5052196;28;20048;-65
2020/12/08 00:49:19;;;;;;;40.20;21.85;;;;;;;-0.28;100.00;101255.28;5051363;28;20358;-67
2020/12/08 00:52:05;;;;;;;38.60;20.92;;;;;;;-0.31;100.00;101259.44;5053173;28;20036;-66
2020/12/08 00:54:50;;;;;;;41.10;22.83;;;;;;;-0.20;100.00;101245.25;5052349;28;20407;-67
2020/12/08 00:57:36;;;;;;;39.40;21.17;;;;;;;-0.11;100.00;101256.72;5051958;28;20040;-67
2020/12/08 01:00:21;;;;;;;36.92;22.17;;;;;;;-0.07;100.00;101248.25;5038426;28;20036;-67
2020/12/08 01:03:06;;;;;;;38.85;21.48;;;;;;;-0.18;100.00;101243.59;5051716;28;20037;-66
2020/12/08 01:05:52;;;;;;;35.08;19.75;;;;;;;-0.19;100.00;101237.56;5069606;28;20036;-66
2020/12/08 01:08:37;;;;;;;40.30;21.75;;;;;;;-0.19;100.00;101240.13;5071717;28;20150;-67
2020/12/08 01:11:22;;;;;;;34.13;20.45;;;;;;;-0.27;100.00;101233.00;5057566;28;20024;-67
2020/12/08 01:14:12;;;;;;;42.63;22.88;;;;;;;-0.31;100.00;101231.13;5071544;28;20040;-67
2020/12/08 01:16:59;;;;;;;38.08;21.73;;;;;;;-0.12;100.00;101236.09;5071858;28;20064;-66
2020/12/08 01:19:44;;;;;;;38.58;21.77;;;;;;;-0.34;100.00;101229.34;5071623;28;20145;-67
2020/12/08 01:22:29;;;;;;;35.60;19.48;;;;;;;-0.25;100.00;101232.22;5071476;28;20127;-65
2020/12/08 01:25:15;;;;;;;36.17;20.60;;;;;;;-0.22;100.00;101234.91;5071689;28;20037;-66
2020/12/08 01:28:01;;;;;;;40.13;21.63;;;;;;;-0.06;100.00;101242.31;5071299;28;20032;-68
2020/12/08 01:30:49;;;;;;;32.53;18.90;;;;;;;-0.16;100.00;101227.38;5071387;28;20157;-66
2020/12/08 01:33:35;;;;;;;38.50;20.55;;;;;;;-0.26;100.00;101240.75;5071818;28;20056;-66
2020/12/08 01:36:20;;;;;;;30.40;18.50;;;;;;;-0.31;100.00;101241.44;5071558;28;20028;-66
2020/12/08 01:39:05;;;;;;;36.97;19.65;;;;;;;-0.07;100.00;101237.09;5071389;28;20090;-66
2020/12/08 01:41:56;;;;;;;36.72;21.02;;;;;;;0.12;100.00;101233.44;5071232;28;20048;-66
2020/12/08 01:44:49;;;;;;;31.90;18.58;;;;;;;0.04;100.00;101238.31;5071165;28;20427;-66
2020/12/08 01:47:34;;;;;;;36.20;18.83;;;;;;;0.07;100.00;101237.56;5071603;28;20041;-67
2020/12/08 01:50:20;;;;;;;31.40;18.52;;;;;;;0.25;100.00;101241.59;5071414;28;20047;-67
2020/12/08 01:53:06;;;;;;;32.00;17.95;;;;;;;0.16;100.00;101236.13;5071509;28;20094;-66
2020/12/08 01:55:51;;;;;;;31.13;18.65;;;;;;;-0.01;100.00;101237.28;5071341;28;20028;-66
2020/12/08 01:58:37;;;;;;;33.20;19.55;;;;;;;-0.12;100.00;101243.81;5071245;28;20139;-65
2020/12/08 02:01:22;;;;;;;32.85;19.27;;;;;;;0.27;100.00;101239.94;5071387;28;20028;-66
2020/12/08 02:04:08;;;;;;;31.23;19.08;;;;;;;-0.04;100.00;101239.78;5067518;28;20036;-66
2020/12/08 02:06:53;;;;;;;32.50;18.35;;;;;;;-0.06;100.00;101241.44;5051345;28;20469;-66
2020/12/08 02:09:38;;;;;;;31.70;18.70;;;;;;;0.17;100.00;101241.34;5052261;28;20445;-66
2020/12/08 02:12:24;;;;;;;30.25;17.63;;;;;;;0.48;100.00;101245.75;5055031;28;20028;-67
2020/12/08 02:15:09;;;;;;;32.53;18.50;;;;;;;0.25;100.00;101240.72;5054625;28;20043;-67
2020/12/08 02:17:55;;;;;;;33.05;19.77;;;;;;;0.30;100.00;101232.31;5054271;28;20476;-66
2020/12/08 02:20:43;;;;;;;33.90;19.25;;;;;;;0.01;100.00;101246.81;5054260;28;20058;-67
2020/12/08 02:23:29;;;;;;;31.17;18.33;;;;;;;0.03;100.00;101248.59;5054684;28;20040;-67
2020/12/08 02:26:14;;;;;;;33.17;19.02;;;;;;;0.00;100.00;101233.91;5054682;28;20029;-66
2020/12/08 02:29:00;;;;;;;43.42;19.70;;;;;;;0.09;100.00;101236.78;5053903;28;20453;-66
2020/12/08 02:31:45;;;;;;;31.73;18.40;;;;;;;-0.03;100.00;101237.22;5054207;28;20028;-67
2020/12/08 02:34:31;;;;;;;33.13;19.63;;;;;;;0.19;100.00;101228.50;5053987;28;20441;-66
2020/12/08 02:37:16;;;;;;;35.25;20.50;;;;;;;0.06;100.00;101223.78;5054407;28;20101;-67
2020/12/08 02:40:04;;;;;;;32.30;19.02;;;;;;;-0.16;100.00;101216.22;5053799;28;20351;-66
2020/12/08 02:42:49;;;;;;;31.30;18.20;;;;;;;0.13;100.00;101218.03;5053772;28;20052;-67
2020/12/08 02:45:34;;;;;;;36.63;20.48;;;;;;;0.61;100.00;101223.81;5054296;28;20032;-66
2020/12/08 02:48:20;;;;;;;31.50;18.13;;;;;;;0.16;100.00;101222.41;5054034;28;20100;-67
2020/12/08 02:51:05;;;;;;;33.10;18.92;;;;;;;0.44;100.00;101222.44;5040271;28;20028;-66
2020/12/08 02:53:51;;;;;;;32.28;18.05;;;;;;;0.64;100.00;101224.78;5053530;28;20120;-66
2020/12/08 02:56:36;;;;;;;34.03;18.15;;;;;;;1.31;100.00;101225.88;5053849;28;20040;-66
2020/12/08 02:59:22;;;;;;;32.28;18.48;;;;;;;1.09;100.00;101230.41;5053592;28;20021;-66
2020/12/08 03:02:07;;;;;;;31.80;18.13;;;;;;;1.37;100.00;101232.94;5053442;28;20041;-66
2020/12/08 03:04:53;;;;;;;29.67;17.35;;;;;;;0.68;100.00;101233.50;5063721;28;20036;-66
2020/12/08 03:07:39;;;;;;;34.80;19.48;;;;;;;0.98;100.00;101231.81;5073476;28;20475;-67
2020/12/08 03:10:25;;;;;;;34.05;19.63;;;;;;;0.71;100.00;101238.72;5073644;28;20036;-67
2020/12/08 03:13:11;;;;;;;34.63;18.77;;;;;;;0.82;100.00;101238.22;5073487;28;20116;-67
2020/12/08 03:15:56;;;;;;;30.02;17.88;;;;;;;0.90;100.00;101238.44;5073011;28;20037;-67
2020/12/08 03:18:42;;;;;;;29.85;17.67;;;;;;;1.60;100.00;101237.03;5059724;28;20125;-66
2020/12/08 03:21:32;;;;;;;29.45;18.50;;;;;;;1.34;100.00;101228.56;5073073;28;20452;-66
2020/12/08 03:24:17;;;;;;;32.17;19.30;;;;;;;1.16;100.00;101240.09;5073291;28;20055;-66
2020/12/08 03:27:02;;;;;;;32.03;18.55;;;;;;;1.48;100.00;101237.53;5073558;28;20036;-66
2020/12/08 03:29:48;;;;;;;31.25;19.00;;;;;;;1.35;100.00;101240.63;5072622;28;20519;-66
2020/12/08 03:32:33;;;;;;;29.52;16.73;;;;;;;1.02;100.00;101244.84;5073399;28;20540;-67
2020/12/08 03:35:19;;;;;;;31.15;18.38;;;;;;;1.40;100.00;101231.28;5073204;28;20161;-67
2020/12/08 03:38:04;;;;;;;30.02;17.42;;;;;;;1.38;100.00;101232.97;5072723;28;20378;-67
2020/12/08 03:40:50;;;;;;;27.77;17.10;;;;;;;1.42;100.00;101232.22;5073074;28;20064;-67
2020/12/08 03:43:35;;;;;;;28.52;17.02;;;;;;;1.60;100.00;101234.44;5072433;28;20543;-67
2020/12/08 03:46:22;;;;;;;26.95;16.13;;;;;;;1.61;100.00;101241.34;5073208;28;20358;-67
2020/12/08 03:49:08;;;;;;;31.00;18.30;;;;;;;1.90;100.00;101242.97;5058559;28;20532;-67
2020/12/08 03:51:54;;;;;;;29.60;17.45;;;;;;;1.64;100.00;101241.44;5072871;28;20151;-66
2020/12/08 03:54:40;;;;;;;28.73;17.42;;;;;;;1.90;100.00;101249.00;5072842;28;20057;-66
2020/12/08 03:57:25;;;;;;;29.70;16.90;;;;;;;2.09;100.00;101247.75;5073921;28;20106;-66
2020/12/08 04:00:10;;;;;;;26.92;16.83;;;;;;;2.09;100.00;101250.34;5075181;28;20028;-66
2020/12/08 04:02:56;;;;;;;30.65;17.63;;;;;;;1.98;100.00;101252.66;5073746;28;20032;-67
2020/12/08 04:05:41;;;;;;;28.10;17.70;;;;;;;2.22;100.00;101255.88;5056756;28;20112;-65
2020/12/08 04:08:27;;;;;;;29.17;17.95;;;;;;;1.84;100.00;101248.00;5053321;28;20158;-66
2020/12/08 04:11:16;;;;;;;29.65;17.80;;;;;;;1.98;100.00;101252.66;5038991;28;20090;-66
2020/12/08 04:14:02;;;;;;;31.13;18.50;;;;;;;1.67;100.00;101239.78;5038647;28;20116;-66
2020/12/08 04:16:48;;;;;;;35.63;20.15;;;;;;;1.67;100.00;101249.22;5052738;28;20041;-66
2020/12/08 04:19:33;;;;;;;31.67;18.70;;;;;;;2.08;100.00;101252.03;5038511;28;20369;-66
2020/12/08 04:22:19;;;;;;;29.65;18.02;;;;;;;2.16;100.00;101250.53;5052315;28;20519;-66
2020/12/08 04:25:04;;;;;;;28.33;16.52;;;;;;;1.92;100.00;101246.47;5052199;28;20041;-66
2020/12/08 04:27:49;;;;;;;26.63;16.42;;;;;;;1.90;100.00;101251.59;5038082;28;20116;-66
2020/12/08 04:30:36;;;;;;;27.98;17.35;;;;;;;2.17;100.00;101241.06;5052018;28;20416;-67
2020/12/08 04:33:22;;;;;;;25.88;16.00;;;;;;;2.11;100.00;101239.22;5050789;28;20767;-67
2020/12/08 04:36:15;;;;;;;30.02;18.20;;;;;;;1.58;100.00;101247.31;5052272;28;20037;-66
2020/12/08 04:39:00;;;;;;;26.45;15.88;;;;;;;1.22;100.00;101235.97;5051758;28;20037;-66
2020/12/08 04:41:46;;;;;;;24.40;15.38;;;;;;;1.21;100.00;101238.50;5052034;28;20378;-66
2020/12/08 04:44:31;;;;;;;27.73;16.77;;;;;;;1.41;100.00;101233.03;5037809;28;20045;-66
2020/12/08 04:47:21;;;;;;;31.65;18.73;;;;;;;1.25;100.00;101228.31;5052031;28;20094;-66
2020/12/08 04:50:07;;;;;;;28.20;18.48;;;;;;;1.50;100.00;101232.41;5051320;28;20025;-66
2020/12/08 04:52:52;;;;;;;29.50;19.45;;;;;;;1.61;100.00;101225.84;5051769;28;20039;-66
2020/12/08 04:55:38;;;;;;;30.50;19.35;;;;;;;1.50;100.00;101232.41;5051878;28;20029;-66
2020/12/08 04:58:24;;;;;;;28.55;18.42;;;;;;;1.49;100.00;101234.13;5051712;28;20365;-66
2020/12/08 05:01:23;;;;;;;30.95;19.48;;;;;;;1.86;100.00;101233.38;5051574;28;20127;-66
2020/12/08 05:04:08;;;;;;;26.02;17.15;;;;;;;1.75;100.00;101234.81;5055398;28;20072;-66
2020/12/08 05:07:04;;;;;;;30.10;18.63;;;;;;;1.91;100.00;101247.28;5071952;28;20197;-66
2020/12/08 05:09:50;;;;;;;29.52;18.85;;;;;;;1.87;100.00;101240.28;5071430;28;20029;-67
2020/12/08 05:12:35;;;;;;;27.83;18.13;;;;;;;2.22;100.00;101239.47;5071986;28;20034;-66
2020/12/08 05:15:21;;;;;;;25.35;16.55;;;;;;;1.80;100.00;101248.75;5057575;28;20427;-66
2020/12/08 05:18:09;;;;;;;30.30;18.42;;;;;;;1.65;100.00;101244.03;5071772;28;20044;-67
2020/12/08 05:21:09;;;;;;;29.50;17.17;;;;;;;1.64;100.00;101252.59;5071645;28;20051;-66
2020/12/08 05:23:54;;;;;;;27.88;17.73;;;;;;;1.96;100.00;101251.75;5071441;28;20063;-65
2020/12/08 05:26:52;;;;;;;31.08;19.00;;;;;;;2.10;100.00;101265.00;5071738;28;20549;-66
2020/12/08 05:29:37;;;;;;;27.83;17.98;;;;;;;1.77;100.00;101256.41;5057031;28;20126;-67
2020/12/08 05:32:30;;;;;;;25.50;16.63;;;;;;;1.87;100.00;101258.38;5071858;28;20032;-67
2020/12/08 05:35:21;;;;;;;29.52;18.25;;;;;;;1.71;100.00;101258.81;5071792;28;20040;-66
2020/12/08 05:38:08;;;;;;;34.35;20.45;;;;;;;1.47;100.00;101259.03;5071752;28;20029;-66
2020/12/08 05:40:54;;;;;;;33.75;20.75;;;;;;;1.40;100.00;101264.84;5071244;28;20036;-67
2020/12/08 05:43:41;;;;;;;30.83;19.10;;;;;;;1.67;100.00;101262.16;5070950;28;20048;-67
2020/12/08 05:46:39;;;;;;;30.80;18.95;;;;;;;1.87;100.00;101264.44;5075480;28;20051;-67
2020/12/08 05:49:24;;;;;;;31.42;19.80;;;;;;;1.75;100.00;101269.28;5074986;28;20125;-66
2020/12/08 05:52:09;;;;;;;30.85;19.55;;;;;;;2.40;100.00;101282.16;5075102;28;20036;-67
2020/12/08 05:55:21;;;;;;;30.35;19.75;;;;;;;2.32;100.00;101286.25;5075351;28;20040;-67
2020/12/08 05:58:10;;;;;;;30.27;19.55;;;;;;;2.77;100.00;101299.41;5075085;28;20048;-67
2020/12/08 06:01:06;;;;;;;28.92;19.05;;;;;;;2.72;100.00;101298.41;5074611;28;20476;-67
2020/12/08 06:03:58;;;;;;;35.58;23.38;;;;;;;3.12;100.00;101304.53;5073357;28;20040;-67
2020/12/08 06:06:47;;;;;;;32.42;21.40;;;;;;;3.32;100.00;101300.63;5055114;28;20033;-66
2020/12/08 06:09:36;;;;;;;26.58;17.35;;;;;;;2.60;100.00;101311.06;5040531;28;20039;-66
2020/12/08 06:12:21;;;;;;;28.95;18.67;;;;;;;2.98;100.00;101313.69;5055006;28;20127;-66
2020/12/08 06:15:24;;;;;;;27.33;17.50;;;;;;;2.62;100.00;101309.41;5054734;28;20037;-67
2020/12/08 06:18:11;;;;;;;26.40;16.73;;;;;;;2.94;100.00;101314.44;5040866;28;20044;-66
2020/12/08 06:20:57;;;;;;;26.95;16.75;;;;;;;3.10;100.00;101307.94;5054531;28;20094;-67
2020/12/08 06:23:51;;;;;;;27.80;18.25;;;;;;;3.12;100.00;101314.00;5054610;28;20462;-67
2020/12/08 06:26:38;;;;;;;27.98;17.15;;;;;;;3.17;100.00;101317.59;5054558;28;20032;-66
2020/12/08 06:29:23;;;;;;;25.65;16.70;;;;;;;3.31;100.00;101322.22;5054208;28;20036;-67
2020/12/08 06:32:09;;;;;;;29.58;17.92;;;;;;;3.56;100.00;101327.03;5054609;28;20049;-67
2020/12/08 06:35:08;;;;;;;27.75;17.52;;;;;;;3.81;100.00;101318.00;5054645;28;20423;-67
2020/12/08 06:37:54;;;;;;;26.13;15.82;;;;;;;3.57;100.00;101321.00;5054920;28;20044;-66
2020/12/08 06:40:50;;;;;;;25.20;15.48;;;;;;;2.84;100.00;101321.97;5040218;28;20052;-68
2020/12/08 06:43:38;;;;;;;28.00;17.08;;;;;;;3.24;100.00;101324.63;5053577;28;20053;-68
2020/12/08 06:46:24;;;;;;;24.50;16.48;;;;;;;3.06;100.00;101327.66;5053992;28;20464;-67
2020/12/08 06:49:12;;;;;;;29.80;19.42;;;;;;;3.09;100.00;101332.06;5053513;28;20041;-67
2020/12/08 06:51:58;;;;;;;31.27;19.15;;;;;;;2.84;100.00;101332.31;5040364;28;20433;-67
2020/12/08 06:54:43;;;;;;;32.67;21.40;;;;;;;2.86;100.00;101334.09;5053713;28;20043;-67
2020/12/08 06:57:29;;;;;;;31.48;20.20;;;;;;;3.18;100.00;101340.88;5053845;28;20037;-68
2020/12/08 07:00:14;;;;;;;35.17;21.20;;;;;;;3.13;100.00;101331.28;5053861;28;20028;-67
2020/12/08 07:03:01;;;;;;;36.42;23.00;;;;;;;3.08;100.00;101331.19;5054019;28;20123;-67
2020/12/08 07:05:47;;;;;;;29.45;19.40;;;;;;;3.57;100.00;101330.50;5072477;28;20068;-67
2020/12/08 07:08:32;;;;;;;31.25;20.50;;;;;;;3.11;100.00;101327.78;5073933;28;20029;-67
2020/12/08 07:11:22;;;;;;;37.45;24.15;;;;;;;3.49;100.00;101330.34;5075004;28;20052;-67
2020/12/08 07:14:08;;;;;;;26.73;16.77;;;;;;;3.30;100.00;101332.53;5060016;28;20380;-66
2020/12/08 07:16:53;;;;;;;25.65;17.50;;;;;;;3.24;100.00;101334.97;5073828;28;20049;-67
2020/12/08 07:19:39;;;;;;;27.73;17.92;;;;;;;3.47;100.00;101332.03;5073754;28;20143;-66
2020/12/08 07:22:24;;;;;;;32.67;21.55;;;;;;;3.78;100.00;101328.34;5073745;28;20044;-67
2020/12/08 07:25:12;;;;;;;29.25;18.90;;;;;;;3.42;100.00;101333.63;5073213;28;20111;-68
2020/12/08 07:27:57;;;;;;;30.02;19.10;;;;;;;3.53;100.00;101336.44;5059545;28;20039;-66
2020/12/08 07:30:49;;;;;;;29.95;19.45;;;;;;;3.32;100.00;101336.00;5058911;28;20042;-66
2020/12/08 07:33:34;;;;;;;27.23;17.98;;;;;;;3.59;100.00;101334.00;5073545;28;20032;-68
2020/12/08 07:36:25;;;;;;;25.52;17.20;;;;;;;3.80;100.00;101330.13;5073249;28;20028;-67
2020/12/08 07:39:19;;;;;;;33.50;20.08;;;;;;;3.83;100.00;101330.19;5072957;28;20027;-66
2020/12/08 07:42:05;;;;;;;34.17;19.95;;;;;;;3.69;100.00;101323.84;5072446;28;20051;-66
2020/12/08 07:44:55;;;;;;;30.42;18.63;;;;;;;3.73;100.00;101327.38;5073046;28;20029;-66
2020/12/08 07:47:41;;;;;;;28.25;17.67;;;;;;;3.58;100.00;101333.13;5073047;28;20062;-67
2020/12/08 07:50:31;;;;;;;23.85;15.48;;;;;;;3.91;100.00;101332.91;5072642;28;20041;-67
2020/12/08 07:53:16;;;;;;;41.28;25.48;;;;;;;3.84;100.00;101331.03;5072837;28;20050;-68
2020/12/08 07:56:03;;;;;;;20.77;13.68;;;;;;;3.98;100.00;101338.22;5072456;28;20121;-67
2020/12/08 07:58:49;;;;;;;36.28;21.95;;;;;;;4.29;100.00;101337.94;5072653;28;20064;-67
2020/12/08 08:01:42;;;;;;;15.43;10.85;;;;;;;4.11;100.00;101337.59;5072565;28;20178;-68
2020/12/08 08:04:29;;;;;;;16.95;11.55;;;;;;;4.04;100.00;101338.38;5066125;28;20039;-67
2020/12/08 08:07:15;;;;;;;20.00;13.52;;;;;;;4.02;100.00;101342.63;5052225;28;20040;-66
2020/12/08 08:10:00;;;;;;;23.65;15.85;;;;;;;3.76;100.00;101343.88;5052080;28;20036;-66
2020/12/08 08:12:46;;;;;;;25.73;16.45;;;;;;;3.88;100.00;101357.06;5052149;28;20036;-67
2020/12/08 08:15:31;;;;;;;20.95;13.68;;;;;;;4.14;100.00;101353.22;5051909;28;20155;-66
2020/12/08 08:18:16;;;;;;;20.25;13.10;;;;;;;4.39;100.00;101360.59;5052315;28;20072;-67
2020/12/08 08:21:02;;;;;;;15.35;10.82;;;;;;;4.23;100.00;101363.75;5051913;28;20028;-66
2020/12/08 08:23:49;;;;;;;17.50;12.18;;;;;;;4.69;100.00;101360.25;5051406;28;20060;-66
2020/12/08 08:26:38;;;;;;;17.48;11.50;;;;;;;4.59;100.00;101363.56;5052189;28;20040;-67
2020/12/08 08:29:24;;;;;;;15.77;10.77;;;;;;;4.32;100.00;101363.94;5038075;28;20095;-67
2020/12/08 08:32:09;;;;;;;14.55;9.25;;;;;;;4.55;100.00;101364.34;5052151;28;20036;-69
2020/12/08 08:34:55;;;;;;;15.50;10.50;;;;;;;4.56;100.00;101374.75;5052063;28;20037;-67
2020/12/08 08:37:40;;;;;;;15.85;10.43;;;;;;;4.76;100.00;101373.38;5051891;28;20036;-66
2020/12/08 08:40:25;;;;;;;21.25;13.95;;;;;;;4.72;100.00;101379.34;5051737;28;20029;-67
2020/12/08 08:43:11;;;;;;;19.52;12.43;;;;;;;4.21;100.00;101372.34;5051534;28;20105;-66
2020/12/08 08:45:56;;;;;;;18.40;12.27;;;;;;;4.01;100.00;101373.72;5037734;28;20064;-67
2020/12/08 08:48:42;;;;;;;17.15;12.15;;;;;;;4.05;100.00;101379.00;5051658;28;20067;-66
2020/12/08 08:51:27;;;;;;;19.65;13.20;;;;;;;3.75;100.00;101375.81;5051602;28;20056;-66
2020/12/08 08:54:16;;;;;;;18.58;12.90;;;;;;;4.27;100.00;101372.50;5037509;28;20037;-67
2020/12/08 08:57:01;;;;;;;20.60;14.77;;;;;;;4.33;100.00;101360.50;5051677;28;20075;-67
2020/12/08 08:59:47;;;;;;;29.95;19.10;;;;;;;3.85;100.00;101372.53;5037561;28;20044;-67
2020/12/08 09:02:32;;;;;;;31.83;20.45;;;;;;;3.86;100.00;101358.72;5051832;28;20037;-66
2020/12/08 09:05:18;;;;;;;27.20;18.35;;;;;;;3.93;100.00;101365.78;5064948;28;20041;-67
2020/12/08 09:08:04;;;;;;;21.05;13.82;;;;;;;3.50;100.00;101365.75;5071728;28;20036;-66
2020/12/08 09:10:55;;;;;;;22.20;15.38;;;;;;;3.41;100.00;101373.34;5057832;28;20366;-69
2020/12/08 09:13:41;;;;;;;21.15;14.18;;;;;;;3.38;100.00;101373.25;5071791;28;20033;-66
2020/12/08 09:16:26;;;;;;;22.30;15.35;;;;;;;3.51;100.00;101369.22;5057739;28;20033;-68
2020/12/08 09:19:12;;;;;;;21.48;13.95;;;;;;;3.61;100.00;101366.88;5058802;28;20033;-67
2020/12/08 09:21:57;;;;;;;25.27;15.55;;;;;;;4.02;100.00;101363.38;5075821;28;20094;-66
2020/12/08 09:24:43;;;;;;;21.48;14.20;;;;;;;3.25;100.00;101363.50;5075551;28;20376;-67
2020/12/08 09:27:28;;;;;;;20.25;13.25;;;;;;;3.03;100.00;101366.44;5075349;28;20071;-65
2020/12/08 09:30:14;;;;;;;18.67;13.30;;;;;;;3.04;100.00;101363.00;5075213;28;20052;-66
2020/12/08 09:32:59;;;;;;;16.30;11.73;;;;;;;3.21;100.00;101365.97;5075423;28;20036;-66
2020/12/08 09:35:45;;;;;;;15.30;10.70;;;;;;;3.22;100.00;101370.31;5075294;28;20035;-66
2020/12/08 09:38:30;;;;;;;17.75;11.48;;;;;;;3.01;100.00;101380.19;5075084;28;20024;-65
2020/12/08 09:41:16;;;;;;;17.30;12.20;;;;;;;3.16;100.00;101376.22;5074971;28;20082;-66
2020/12/08 09:44:02;;;;;;;16.77;11.07;;;;;;;3.07;100.00;101382.91;5075258;28;20044;-66
2020/12/08 09:46:47;;;;;;;18.15;11.82;;;;;;;3.46;100.00;101386.41;5061232;28;20036;-67
2020/12/08 09:49:33;;;;;;;16.95;11.93;;;;;;;3.20;100.00;101380.66;5074895;28;20047;-67
2020/12/08 09:52:18;;;;;;;16.58;11.38;;;;;;;3.19;100.00;101384.06;5074986;28;20028;-66
2020/12/08 09:55:05;;;;;;;21.98;12.05;;;;;;;3.72;100.00;101393.00;5074935;28;20032;-66
2020/12/08 09:57:50;;;;;;;17.67;12.15;;;;;;;3.42;100.00;101389.75;5074426;28;20559;-66
2020/12/08 10:00:36;;;;;;;17.30;11.73;;;;;;;3.62;100.00;101391.91;5074501;28;20055;-66
2020/12/08 10:03:21;;;;;;;14.55;10.38;;;;;;;3.68;100.00;101392.06;5074627;28;20087;-66
2020/12/08 10:06:07;;;;;;;14.50;10.50;;;;;;;3.70;100.00;101389.50;5054669;28;20044;-66
2020/12/08 10:08:56;;;;;;;21.35;14.50;;;;;;;3.66;100.00;101387.69;5054414;28;20029;-66
2020/12/08 10:11:41;;;;;;;19.38;13.65;;;;;;;3.53;100.00;101393.44;5054413;28;20441;-65
2020/12/08 10:14:26;;;;;;;18.13;13.15;;;;;;;4.22;100.00;101387.94;5054580;28;20127;-66
2020/12/08 10:17:13;;;;;;;23.70;14.70;;;;;;;4.40;100.00;101385.72;5054723;28;20036;-66
2020/12/08 10:19:59;;;;;;;22.45;15.65;;;;;;;3.72;100.00;101388.69;5054088;28;20217;-66
2020/12/08 10:22:44;;;;;;;22.30;15.52;;;;;;;4.11;100.00;101386.88;5054283;28;20117;-66
2020/12/08 10:25:29;;;;;;;20.48;14.35;;;;;;;4.18;100.00;101390.47;5054463;28;20101;-66
2020/12/08 10:28:15;;;;;;;18.63;13.35;;;;;;;4.49;100.00;101383.28;5054097;28;20090;-67
2020/12/08 10:31:00;;;;;;;22.55;15.82;;;;;;;4.25;100.00;101387.13;5039979;28;20102;-68
2020/12/08 10:33:46;;;;;;;18.23;13.25;;;;;;;4.92;100.00;101393.53;5053796;28;20158;-67
2020/12/08 10:36:31;;;;;;;16.83;12.77;;;;;;;4.42;100.00;101391.78;5054364;28;20044;-66
2020/12/08 10:39:17;;;;;;;19.30;13.40;;;;;;;4.32;100.00;101392.47;5040055;28;20036;-67
2020/12/08 10:42:02;;;;;;;19.58;14.05;;;;;;;4.84;100.00;101391.66;5053628;28;20473;-67
2020/12/08 10:44:48;;;;;;;19.85;13.82;;;;;;;5.20;100.00;101392.22;5053760;28;20182;-66
2020/12/08 10:47:34;;;;;;;13.27;10.75;;;;;;;4.70;100.00;101396.59;5040117;28;20102;-68
2020/12/08 10:50:19;;;;;;;17.98;12.88;;;;;;;4.24;100.00;101388.88;5053503;28;20099;-68
2020/12/08 10:53:06;;;;;;;18.50;13.23;;;;;;;4.17;100.00;101396.50;5053833;28;20036;-66
2020/12/08 10:55:51;;;;;;;16.98;12.82;;;;;;;4.51;100.00;101399.72;5053772;28;20040;-66
2020/12/08 10:58:37;;;;;;;21.80;14.50;;;;;;;4.06;100.00;101398.88;5039877;28;20103;-67
2020/12/08 11:01:23;;;;;;;15.35;11.05;;;;;;;4.51;100.00;101402.31;5053538;28;20033;-66
2020/12/08 11:04:09;;;;;;;15.57;11.20;;;;;;;4.57;100.00;101398.97;5057002;28;20071;-67
2020/12/08 11:06:58;;;;;;;18.95;12.55;;;;;;;4.52;100.00;101400.59;5073699;28;20043;-67
2020/12/08 11:09:43;;;;;;;15.02;11.63;;;;;;;4.90;100.00;101399.53;5059178;28;20058;-67
2020/12/08 11:12:29;;;;;;;16.33;12.25;;;;;;;4.57;100.00;101401.56;5073661;28;20408;-67
2020/12/08 11:15:14;;;;;;;17.17;12.90;;;;;;;4.62;100.00;101405.09;5073352;28;20453;-66
2020/12/08 11:18:00;;;;;;;16.55;12.20;;;;;;;3.69;100.00;101408.47;5073575;28;20044;-68
2020/12/08 11:20:45;;;;;;;19.05;13.18;;;;;;;4.12;100.00;101405.91;5073582;28;20055;-67
2020/12/08 11:23:31;;;;;;;17.27;12.75;;;;;;;3.98;100.00;101409.97;5059361;28;20476;-67
2020/12/08 11:26:16;;;;;;;17.90;11.75;;;;;;;3.37;100.00;101420.72;5059443;28;20441;-67
2020/12/08 11:29:03;;;;;;;15.70;11.90;;;;;;;3.92;100.00;101426.25;5072806;28;20051;-68
2020/12/08 11:31:52;;;;;;;18.15;13.18;;;;;;;3.65;100.00;101430.84;5059178;28;20125;-67
2020/12/08 11:34:38;;;;;;;18.95;14.13;;;;;;;3.52;100.00;101431.44;5073067;28;20064;-66
2020/12/08 11:37:27;;;;;;;21.00;14.57;;;;;;;3.42;100.00;101423.44;5073353;28;20032;-68
2020/12/08 11:40:13;;;;;;;22.73;15.57;;;;;;;3.59;100.00;101428.16;5072611;28;20496;-67
2020/12/08 11:42:58;;;;;;;28.38;16.88;;;;;;;3.26;100.00;101427.38;5072150;28;20048;-66
2020/12/08 11:45:44;;;;;;;28.20;16.77;;;;;;;4.01;100.00;101418.66;5073001;28;20139;-67
2020/12/08 11:48:29;;;;;;;31.48;19.05;;;;;;;4.10;100.00;101416.25;5073152;28;20123;-66
2020/12/08 11:51:15;;;;;;;27.20;17.98;;;;;;;4.01;100.00;101421.25;5059292;28;20063;-67
2020/12/08 11:54:00;;;;;;;24.20;16.73;;;;;;;3.72;100.00;101434.44;5058924;28;20407;-67
2020/12/08 11:57:07;;;;;;;32.30;20.77;;;;;;;3.38;100.00;101426.78;5059088;28;20035;-68
2020/12/08 11:59:52;;;;;;;30.13;19.45;;;;;;;3.20;100.00;101436.72;5072786;28;20029;-67
2020/12/08 12:02:38;;;;;;;36.47;22.20;;;;;;;3.29;100.00;101427.44;5072834;28;20047;-67
2020/12/08 12:05:23;;;;;;;31.05;20.23;;;;;;;3.39;100.00;101424.25;5058766;28;20045;-68
2020/12/08 12:08:09;;;;;;;31.85;20.13;;;;;;;3.21;100.00;101425.50;5052570;28;20137;-67
2020/12/08 12:10:54;;;;;;;28.88;18.52;;;;;;;3.24;100.00;101431.66;5052557;28;20409;-67
2020/12/08 12:13:42;;;;;;;33.90;21.48;;;;;;;3.22;100.00;101430.72;5052688;28;20052;-67
2020/12/08 12:16:28;;;;;;;36.65;22.83;;;;;;;3.11;100.00;101421.88;5052746;28;20028;-67
2020/12/08 12:19:13;;;;;;;34.78;21.38;;;;;;;3.21;100.00;101418.63;5052431;28;20048;-67
2020/12/08 12:22:00;;;;;;;41.35;24.42;;;;;;;3.34;100.00;101428.41;5052404;28;20040;-65
2020/12/08 12:24:47;;;;;;;35.08;22.40;;;;;;;3.63;100.00;101426.50;5052425;28;20361;-65
2020/12/08 12:27:32;;;;;;;34.00;22.30;;;;;;;4.02;100.00;101417.81;5052284;28;20028;-64
2020/12/08 12:30:18;;;;;;;37.22;24.25;;;;;;;3.57;100.00;101426.34;5052302;28;20056;-66
2020/12/08 12:33:04;;;;;;;43.00;25.38;;;;;;;3.95;100.00;101418.53;5052226;28;20033;-65
2020/12/08 12:35:49;;;;;;;45.40;26.38;;;;;;;3.37;100.00;101425.91;5052127;28;20484;-65
2020/12/08 12:38:34;;;;;;;40.33;24.90;;;;;;;3.79;100.00;101424.28;5052438;28;20079;-64